Terminal Aerodrome Forecast
Issued by NWS Portland, OR

Home | Current Version | Previous Version | Text Only | Print | Product List | Glossary On
Versions: 1 2 3 4 5 6 7 8 9 10 11 12 13 14 15 16 17 18 19 20 21 22 23 24 25 26 27 28 29 30 31 32 33 34 35 36 37 38 39
000
FTUS46 KPQR 240717 AAA
TAFHIO
TAF AMD
KHIO 240717Z 2407/2506 VRB03KT 1/4SM FG VV001
     FM241100 VRB02KT 3SM -SHRASN SCT025 BKN050 BKN070
      TEMPO 2411/2415 1/4SM FG VV001
     FM241500 16004KT P6SM -SHRA BKN025 OVC050
      TEMPO 2416/2420 3SM -SHRASN
     FM242100 13004KT P6SM -SHRAGS BKN030 BKN050
     FM250400 VRB03KT P6SM VCSH SCT035 BKN050=

USA.gov is the U.S. government's official web portal to all federal, state and local government web resources and services.